sensor_id;sensor_type;location;lat;lon;timestamp;P1;durP1;ratioP1;P2;durP2;ratioP2
78410;SDS011;67706;51.074;-1.796;2023-02-28T00:00:49;3.60;;;1.90;;
78410;SDS011;67706;51.074;-1.796;2023-02-28T00:03:16;3.10;;;1.55;;
78410;SDS011;67706;51.074;-1.796;2023-02-28T00:05:44;4.68;;;1.40;;
78410;SDS011;67706;51.074;-1.796;2023-02-28T00:08:11;2.95;;;1.45;;
78410;SDS011;67706;51.074;-1.796;2023-02-28T00:13:05;4.18;;;1.35;;
78410;SDS011;67706;51.074;-1.796;2023-02-28T00:15:33;3.83;;;1.42;;
78410;SDS011;67706;51.074;-1.796;2023-02-28T00:18:00;2.72;;;1.38;;
78410;SDS011;67706;51.074;-1.796;2023-02-28T00:20:27;5.43;;;1.50;;
78410;SDS011;67706;51.074;-1.796;2023-02-28T00:22:56;3.15;;;1.52;;
78410;SDS011;67706;51.074;-1.796;2023-02-28T00:25:24;4.95;;;1.60;;
78410;SDS011;67706;51.074;-1.796;2023-02-28T00:27:51;3.22;;;1.45;;
78410;SDS011;67706;51.074;-1.796;2023-02-28T00:30:19;4.80;;;1.48;;
78410;SDS011;67706;51.074;-1.796;2023-02-28T00:32:47;4.35;;;1.60;;
78410;SDS011;67706;51.074;-1.796;2023-02-28T00:35:14;4.40;;;1.77;;
78410;SDS011;67706;51.074;-1.796;2023-02-28T00:40:10;5.40;;;1.60;;
78410;SDS011;67706;51.074;-1.796;2023-02-28T00:42:37;2.92;;;1.30;;
78410;SDS011;67706;51.074;-1.796;2023-02-28T00:45:05;4.38;;;1.20;;
78410;SDS011;67706;51.074;-1.796;2023-02-28T00:47:33;2.40;;;1.25;;
78410;SDS011;67706;51.074;-1.796;2023-02-28T00:50:00;3.78;;;1.40;;
78410;SDS011;67706;51.074;-1.796;2023-02-28T00:52:27;4.82;;;1.50;;
78410;SDS011;67706;51.074;-1.796;2023-02-28T00:54:54;4.57;;;1.30;;
78410;SDS011;67706;51.074;-1.796;2023-02-28T00:57:22;4.18;;;1.25;;
78410;SDS011;67706;51.074;-1.796;2023-02-28T00:59:49;4.88;;;1.20;;
78410;SDS011;67706;51.074;-1.796;2023-02-28T01:02:16;2.70;;;1.52;;
78410;SDS011;67706;51.074;-1.796;2023-02-28T01:04:45;2.88;;;1.33;;
78410;SDS011;67706;51.074;-1.796;2023-02-28T01:07:12;3.22;;;1.20;;
78410;SDS011;67706;51.074;-1.796;2023-02-28T01:09:39;2.30;;;1.13;;
78410;SDS011;67706;51.074;-1.796;2023-02-28T01:12:06;2.03;;;1.20;;
78410;SDS011;67706;51.074;-1.796;2023-02-28T01:14:35;3.55;;;1.40;;
78410;SDS011;67706;51.074;-1.796;2023-02-28T01:17:02;2.45;;;1.33;;
78410;SDS011;67706;51.074;-1.796;2023-02-28T01:21:55;6.88;;;1.30;;
78410;SDS011;67706;51.074;-1.796;2023-02-28T01:24:22;3.00;;;1.38;;
78410;SDS011;67706;51.074;-1.796;2023-02-28T01:29:15;5.57;;;1.45;;
78410;SDS011;67706;51.074;-1.796;2023-02-28T01:34:10;2.60;;;1.52;;
78410;SDS011;67706;51.074;-1.796;2023-02-28T01:36:37;1.88;;;0.98;;
78410;SDS011;67706;51.074;-1.796;2023-02-28T01:39:04;2.78;;;1.30;;
78410;SDS011;67706;51.074;-1.796;2023-02-28T01:44:01;3.63;;;1.10;;
78410;SDS011;67706;51.074;-1.796;2023-02-28T01:46:30;3.13;;;1.45;;
78410;SDS011;67706;51.074;-1.796;2023-02-28T01:49:00;2.42;;;1.35;;
78410;SDS011;67706;51.074;-1.796;2023-02-28T01:51:32;3.53;;;1.50;;
78410;SDS011;67706;51.074;-1.796;2023-02-28T01:54:02;3.78;;;1.20;;
78410;SDS011;67706;51.074;-1.796;2023-02-28T01:56:38;2.30;;;1.23;;
78410;SDS011;67706;51.074;-1.796;2023-02-28T01:59:10;1.92;;;1.02;;
78410;SDS011;67706;51.074;-1.796;2023-02-28T02:01:41;5.32;;;1.55;;
78410;SDS011;67706;51.074;-1.796;2023-02-28T02:04:09;3.45;;;1.15;;
78410;SDS011;67706;51.074;-1.796;2023-02-28T02:06:37;2.90;;;1.25;;
78410;SDS011;67706;51.074;-1.796;2023-02-28T02:09:08;4.07;;;1.42;;
78410;SDS011;67706;51.074;-1.796;2023-02-28T02:11:34;3.40;;;1.23;;
78410;SDS011;67706;51.074;-1.796;2023-02-28T02:14:11;3.15;;;1.52;;
78410;SDS011;67706;51.074;-1.796;2023-02-28T02:16:57;4.00;;;1.40;;
78410;SDS011;67706;51.074;-1.796;2023-02-28T02:22:36;3.22;;;1.63;;
78410;SDS011;67706;51.074;-1.796;2023-02-28T02:25:17;4.97;;;1.92;;
78410;SDS011;67706;51.074;-1.796;2023-02-28T02:27:57;2.80;;;1.35;;
78410;SDS011;67706;51.074;-1.796;2023-02-28T02:30:44;2.67;;;1.05;;
78410;SDS011;67706;51.074;-1.796;2023-02-28T02:33:30;3.47;;;1.90;;
78410;SDS011;67706;51.074;-1.796;2023-02-28T02:36:13;2.95;;;1.70;;
78410;SDS011;67706;51.074;-1.796;2023-02-28T02:38:47;3.28;;;1.77;;
78410;SDS011;67706;51.074;-1.796;2023-02-28T02:41:20;6.25;;;2.25;;
78410;SDS011;67706;51.074;-1.796;2023-02-28T02:43:53;4.03;;;2.08;;
78410;SDS011;67706;51.074;-1.796;2023-02-28T02:46:27;6.90;;;2.28;;
78410;SDS011;67706;51.074;-1.796;2023-02-28T02:48:56;3.78;;;1.70;;
78410;SDS011;67706;51.074;-1.796;2023-02-28T02:51:26;5.30;;;2.17;;
78410;SDS011;67706;51.074;-1.796;2023-02-28T02:53:56;7.22;;;2.35;;
78410;SDS011;67706;51.074;-1.796;2023-02-28T02:56:27;5.45;;;2.05;;
78410;SDS011;67706;51.074;-1.796;2023-02-28T02:58:57;5.60;;;1.80;;
78410;SDS011;67706;51.074;-1.796;2023-02-28T03:01:30;6.80;;;1.70;;
78410;SDS011;67706;51.074;-1.796;2023-02-28T03:03:59;6.15;;;2.17;;
78410;SDS011;67706;51.074;-1.796;2023-02-28T03:06:30;4.93;;;2.05;;
78410;SDS011;67706;51.074;-1.796;2023-02-28T03:08:57;3.40;;;2.03;;
78410;SDS011;67706;51.074;-1.796;2023-02-28T03:11:23;6.93;;;1.60;;
78410;SDS011;67706;51.074;-1.796;2023-02-28T03:20:02;5.57;;;2.15;;
78410;SDS011;67706;51.074;-1.796;2023-02-28T03:22:44;6.45;;;2.70;;
78410;SDS011;67706;51.074;-1.796;2023-02-28T03:25:18;3.30;;;2.00;;
78410;SDS011;67706;51.074;-1.796;2023-02-28T03:27:54;9.70;;;2.10;;
78410;SDS011;67706;51.074;-1.796;2023-02-28T03:32:56;2.42;;;1.67;;
78410;SDS011;67706;51.074;-1.796;2023-02-28T03:35:26;7.03;;;1.88;;
78410;SDS011;67706;51.074;-1.796;2023-02-28T03:38:00;4.05;;;2.30;;
78410;SDS011;67706;51.074;-1.796;2023-02-28T03:40:32;2.97;;;1.77;;
78410;SDS011;67706;51.074;-1.796;2023-02-28T03:43:03;5.93;;;1.70;;
78410;SDS011;67706;51.074;-1.796;2023-02-28T03:45:36;4.25;;;2.05;;
78410;SDS011;67706;51.074;-1.796;2023-02-28T03:48:06;6.03;;;2.38;;
78410;SDS011;67706;51.074;-1.796;2023-02-28T03:50:39;5.75;;;1.17;;
78410;SDS011;67706;51.074;-1.796;2023-02-28T03:53:10;4.20;;;2.17;;
78410;SDS011;67706;51.074;-1.796;2023-02-28T03:55:42;6.35;;;2.70;;
78410;SDS011;67706;51.074;-1.796;2023-02-28T03:58:13;6.45;;;2.17;;
78410;SDS011;67706;51.074;-1.796;2023-02-28T04:00:48;6.82;;;2.40;;
78410;SDS011;67706;51.074;-1.796;2023-02-28T04:03:20;6.20;;;2.58;;
78410;SDS011;67706;51.074;-1.796;2023-02-28T04:05:50;5.82;;;2.97;;
78410;SDS011;67706;51.074;-1.796;2023-02-28T04:08:19;5.80;;;2.60;;
78410;SDS011;67706;51.074;-1.796;2023-02-28T04:10:47;4.20;;;1.65;;
78410;SDS011;67706;51.074;-1.796;2023-02-28T04:13:22;8.52;;;2.58;;
78410;SDS011;67706;51.074;-1.796;2023-02-28T04:15:49;5.47;;;2.60;;
78410;SDS011;67706;51.074;-1.796;2023-02-28T04:18:16;6.47;;;2.28;;
78410;SDS011;67706;51.074;-1.796;2023-02-28T04:20:42;6.03;;;2.92;;
78410;SDS011;67706;51.074;-1.796;2023-02-28T04:23:09;8.10;;;2.83;;
78410;SDS011;67706;51.074;-1.796;2023-02-28T04:25:37;7.22;;;3.05;;
78410;SDS011;67706;51.074;-1.796;2023-02-28T04:28:05;4.53;;;2.75;;
78410;SDS011;67706;51.074;-1.796;2023-02-28T04:30:32;4.93;;;2.60;;
78410;SDS011;67706;51.074;-1.796;2023-02-28T04:32:59;6.05;;;2.63;;
78410;SDS011;67706;51.074;-1.796;2023-02-28T04:35:26;4.78;;;2.60;;
78410;SDS011;67706;51.074;-1.796;2023-02-28T04:37:52;5.05;;;2.75;;
78410;SDS011;67706;51.074;-1.796;2023-02-28T04:40:19;4.47;;;2.53;;
78410;SDS011;67706;51.074;-1.796;2023-02-28T04:42:47;5.30;;;2.88;;
78410;SDS011;67706;51.074;-1.796;2023-02-28T04:45:14;6.20;;;2.45;;
78410;SDS011;67706;51.074;-1.796;2023-02-28T04:47:42;5.88;;;3.08;;
78410;SDS011;67706;51.074;-1.796;2023-02-28T04:50:09;7.88;;;3.10;;
78410;SDS011;67706;51.074;-1.796;2023-02-28T04:52:36;9.73;;;3.65;;
78410;SDS011;67706;51.074;-1.796;2023-02-28T04:55:03;8.95;;;2.70;;
78410;SDS011;67706;51.074;-1.796;2023-02-28T04:57:30;11.88;;;2.70;;
78410;SDS011;67706;51.074;-1.796;2023-02-28T05:02:25;6.28;;;2.30;;
78410;SDS011;67706;51.074;-1.796;2023-02-28T05:04:52;5.00;;;2.28;;
78410;SDS011;67706;51.074;-1.796;2023-02-28T05:07:19;7.47;;;3.28;;
78410;SDS011;67706;51.074;-1.796;2023-02-28T05:09:45;7.65;;;2.80;;
78410;SDS011;67706;51.074;-1.796;2023-02-28T05:12:12;6.40;;;3.30;;
78410;SDS011;67706;51.074;-1.796;2023-02-28T05:14:39;10.93;;;3.17;;
78410;SDS011;67706;51.074;-1.796;2023-02-28T05:17:07;6.43;;;2.97;;
78410;SDS011;67706;51.074;-1.796;2023-02-28T05:19:35;13.30;;;3.90;;
78410;SDS011;67706;51.074;-1.796;2023-02-28T05:22:02;8.18;;;3.35;;
78410;SDS011;67706;51.074;-1.796;2023-02-28T05:24:28;5.82;;;2.72;;
78410;SDS011;67706;51.074;-1.796;2023-02-28T05:26:55;11.82;;;4.43;;
78410;SDS011;67706;51.074;-1.796;2023-02-28T05:29:22;10.10;;;3.40;;
78410;SDS011;67706;51.074;-1.796;2023-02-28T05:31:49;7.53;;;3.75;;
78410;SDS011;67706;51.074;-1.796;2023-02-28T05:36:43;6.90;;;2.92;;
78410;SDS011;67706;51.074;-1.796;2023-02-28T05:39:10;9.82;;;3.90;;
78410;SDS011;67706;51.074;-1.796;2023-02-28T05:41:38;7.07;;;3.35;;
78410;SDS011;67706;51.074;-1.796;2023-02-28T05:44:06;9.68;;;3.58;;
78410;SDS011;67706;51.074;-1.796;2023-02-28T05:46:33;7.30;;;3.05;;
78410;SDS011;67706;51.074;-1.796;2023-02-28T05:51:27;7.38;;;3.42;;
78410;SDS011;67706;51.074;-1.796;2023-02-28T05:53:54;7.68;;;3.85;;
78410;SDS011;67706;51.074;-1.796;2023-02-28T05:56:25;5.85;;;2.90;;
78410;SDS011;67706;51.074;-1.796;2023-02-28T05:58:51;5.20;;;2.80;;
78410;SDS011;67706;51.074;-1.796;2023-02-28T06:01:19;6.68;;;3.50;;
78410;SDS011;67706;51.074;-1.796;2023-02-28T06:03:48;7.82;;;2.97;;
78410;SDS011;67706;51.074;-1.796;2023-02-28T06:06:15;9.27;;;3.13;;
78410;SDS011;67706;51.074;-1.796;2023-02-28T06:08:43;8.27;;;2.83;;
78410;SDS011;67706;51.074;-1.796;2023-02-28T06:11:10;9.18;;;3.13;;
78410;SDS011;67706;51.074;-1.796;2023-02-28T06:16:04;9.20;;;3.60;;
78410;SDS011;67706;51.074;-1.796;2023-02-28T06:18:31;9.07;;;3.13;;
78410;SDS011;67706;51.074;-1.796;2023-02-28T06:20:58;9.05;;;2.85;;
78410;SDS011;67706;51.074;-1.796;2023-02-28T06:23:25;11.18;;;3.47;;
78410;SDS011;67706;51.074;-1.796;2023-02-28T06:25:53;8.85;;;2.92;;
78410;SDS011;67706;51.074;-1.796;2023-02-28T06:28:23;6.40;;;2.78;;
78410;SDS011;67706;51.074;-1.796;2023-02-28T06:30:50;10.55;;;3.22;;
78410;SDS011;67706;51.074;-1.796;2023-02-28T06:33:17;5.93;;;3.10;;
78410;SDS011;67706;51.074;-1.796;2023-02-28T06:35:44;7.90;;;3.55;;
78410;SDS011;67706;51.074;-1.796;2023-02-28T06:38:12;6.50;;;2.92;;
78410;SDS011;67706;51.074;-1.796;2023-02-28T06:43:07;6.90;;;2.15;;
78410;SDS011;67706;51.074;-1.796;2023-02-28T06:45:33;6.57;;;2.60;;
78410;SDS011;67706;51.074;-1.796;2023-02-28T06:48:00;5.28;;;2.60;;
78410;SDS011;67706;51.074;-1.796;2023-02-28T06:52:54;5.03;;;2.75;;
78410;SDS011;67706;51.074;-1.796;2023-02-28T06:57:47;9.52;;;3.05;;
78410;SDS011;67706;51.074;-1.796;2023-02-28T07:00:17;9.90;;;3.40;;
78410;SDS011;67706;51.074;-1.796;2023-02-28T07:02:44;6.10;;;2.65;;
78410;SDS011;67706;51.074;-1.796;2023-02-28T07:05:12;9.25;;;3.65;;
78410;SDS011;67706;51.074;-1.796;2023-02-28T07:07:38;6.78;;;3.22;;
78410;SDS011;67706;51.074;-1.796;2023-02-28T07:10:09;8.35;;;3.30;;
78410;SDS011;67706;51.074;-1.796;2023-02-28T07:12:37;7.07;;;2.55;;
78410;SDS011;67706;51.074;-1.796;2023-02-28T07:15:04;12.55;;;3.83;;
78410;SDS011;67706;51.074;-1.796;2023-02-28T07:17:33;10.90;;;3.38;;
78410;SDS011;67706;51.074;-1.796;2023-02-28T07:20:00;8.32;;;3.30;;
78410;SDS011;67706;51.074;-1.796;2023-02-28T07:22:29;4.85;;;2.88;;
78410;SDS011;67706;51.074;-1.796;2023-02-28T07:27:22;10.82;;;3.58;;
78410;SDS011;67706;51.074;-1.796;2023-02-28T07:29:50;6.32;;;2.50;;
78410;SDS011;67706;51.074;-1.796;2023-02-28T07:32:17;7.53;;;3.08;;
78410;SDS011;67706;51.074;-1.796;2023-02-28T07:34:46;8.07;;;2.72;;
78410;SDS011;67706;51.074;-1.796;2023-02-28T07:37:13;6.25;;;3.05;;
78410;SDS011;67706;51.074;-1.796;2023-02-28T07:39:40;6.32;;;3.20;;
78410;SDS011;67706;51.074;-1.796;2023-02-28T07:42:08;7.43;;;3.72;;
78410;SDS011;67706;51.074;-1.796;2023-02-28T07:44:37;8.70;;;4.10;;
78410;SDS011;67706;51.074;-1.796;2023-02-28T07:47:06;8.45;;;3.15;;
78410;SDS011;67706;51.074;-1.796;2023-02-28T07:49:33;9.95;;;3.50;;
78410;SDS011;67706;51.074;-1.796;2023-02-28T07:52:02;7.20;;;3.00;;
78410;SDS011;67706;51.074;-1.796;2023-02-28T07:54:29;9.23;;;4.30;;
78410;SDS011;67706;51.074;-1.796;2023-02-28T07:56:56;10.68;;;4.45;;
78410;SDS011;67706;51.074;-1.796;2023-02-28T08:01:49;7.70;;;3.58;;
78410;SDS011;67706;51.074;-1.796;2023-02-28T08:06:42;6.38;;;2.80;;
78410;SDS011;67706;51.074;-1.796;2023-02-28T08:11:37;6.15;;;2.42;;
78410;SDS011;67706;51.074;-1.796;2023-02-28T08:14:04;7.75;;;2.38;;
78410;SDS011;67706;51.074;-1.796;2023-02-28T08:16:31;5.80;;;2.90;;
78410;SDS011;67706;51.074;-1.796;2023-02-28T08:18:57;5.43;;;2.35;;
78410;SDS011;67706;51.074;-1.796;2023-02-28T08:21:24;6.47;;;2.65;;
78410;SDS011;67706;51.074;-1.796;2023-02-28T08:23:50;5.32;;;2.47;;
78410;SDS011;67706;51.074;-1.796;2023-02-28T08:28:46;3.55;;;1.88;;
78410;SDS011;67706;51.074;-1.796;2023-02-28T08:31:13;7.50;;;1.92;;
78410;SDS011;67706;51.074;-1.796;2023-02-28T08:33:42;4.00;;;2.03;;
78410;SDS011;67706;51.074;-1.796;2023-02-28T08:36:09;1.52;;;1.08;;
78410;SDS011;67706;51.074;-1.796;2023-02-28T08:38:36;4.20;;;1.92;;
78410;SDS011;67706;51.074;-1.796;2023-02-28T08:41:05;5.07;;;2.13;;
78410;SDS011;67706;51.074;-1.796;2023-02-28T08:43:35;6.72;;;2.45;;
78410;SDS011;67706;51.074;-1.796;2023-02-28T08:46:03;5.38;;;2.65;;
78410;SDS011;67706;51.074;-1.796;2023-02-28T08:48:31;5.18;;;2.55;;
78410;SDS011;67706;51.074;-1.796;2023-02-28T08:51:01;4.32;;;1.85;;
78410;SDS011;67706;51.074;-1.796;2023-02-28T08:53:29;5.70;;;1.80;;
78410;SDS011;67706;51.074;-1.796;2023-02-28T08:55:57;4.90;;;1.92;;
78410;SDS011;67706;51.074;-1.796;2023-02-28T08:58:24;5.25;;;1.58;;
78410;SDS011;67706;51.074;-1.796;2023-02-28T09:00:52;4.32;;;1.80;;
78410;SDS011;67706;51.074;-1.796;2023-02-28T09:03:20;5.25;;;2.13;;
78410;SDS011;67706;51.074;-1.796;2023-02-28T09:05:51;5.30;;;2.03;;
78410;SDS011;67706;51.074;-1.796;2023-02-28T09:08:19;5.57;;;2.40;;
78410;SDS011;67706;51.074;-1.796;2023-02-28T09:10:45;4.18;;;1.77;;
78410;SDS011;67706;51.074;-1.796;2023-02-28T09:13:13;5.65;;;2.58;;
78410;SDS011;67706;51.074;-1.796;2023-02-28T09:15:39;4.60;;;2.58;;
78410;SDS011;67706;51.074;-1.796;2023-02-28T09:18:07;5.13;;;2.67;;
78410;SDS011;67706;51.074;-1.796;2023-02-28T09:20:36;5.53;;;2.25;;
78410;SDS011;67706;51.074;-1.796;2023-02-28T09:23:03;5.07;;;2.10;;
78410;SDS011;67706;51.074;-1.796;2023-02-28T09:25:30;5.30;;;2.00;;
78410;SDS011;67706;51.074;-1.796;2023-02-28T09:30:23;5.13;;;2.17;;
78410;SDS011;67706;51.074;-1.796;2023-02-28T09:32:50;5.43;;;2.45;;
78410;SDS011;67706;51.074;-1.796;2023-02-28T09:35:20;5.53;;;1.80;;
78410;SDS011;67706;51.074;-1.796;2023-02-28T09:37:48;2.92;;;1.38;;
78410;SDS011;67706;51.074;-1.796;2023-02-28T09:40:17;3.95;;;1.42;;
78410;SDS011;67706;51.074;-1.796;2023-02-28T09:42:45;2.53;;;1.13;;
78410;SDS011;67706;51.074;-1.796;2023-02-28T09:45:16;4.38;;;1.73;;
78410;SDS011;67706;51.074;-1.796;2023-02-28T09:47:49;4.55;;;1.98;;
78410;SDS011;67706;51.074;-1.796;2023-02-28T09:50:23;2.53;;;0.93;;
78410;SDS011;67706;51.074;-1.796;2023-02-28T09:52:58;4.55;;;1.30;;
78410;SDS011;67706;51.074;-1.796;2023-02-28T09:55:27;1.85;;;1.00;;
78410;SDS011;67706;51.074;-1.796;2023-02-28T09:57:57;3.63;;;0.98;;
78410;SDS011;67706;51.074;-1.796;2023-02-28T10:00:27;2.75;;;0.75;;
78410;SDS011;67706;51.074;-1.796;2023-02-28T10:03:06;1.40;;;0.60;;
78410;SDS011;67706;51.074;-1.796;2023-02-28T10:05:52;1.55;;;0.68;;
78410;SDS011;67706;51.074;-1.796;2023-02-28T10:08:22;3.53;;;1.17;;
78410;SDS011;67706;51.074;-1.796;2023-02-28T10:10:53;1.20;;;0.77;;
78410;SDS011;67706;51.074;-1.796;2023-02-28T10:13:24;1.05;;;0.50;;
78410;SDS011;67706;51.074;-1.796;2023-02-28T10:15:54;0.95;;;0.40;;
78410;SDS011;67706;51.074;-1.796;2023-02-28T10:18:26;1.73;;;0.70;;
78410;SDS011;67706;51.074;-1.796;2023-02-28T10:21:02;0.77;;;0.55;;
78410;SDS011;67706;51.074;-1.796;2023-02-28T10:23:31;0.77;;;0.52;;
78410;SDS011;67706;51.074;-1.796;2023-02-28T10:26:05;0.60;;;0.30;;
78410;SDS011;67706;51.074;-1.796;2023-02-28T10:28:38;1.20;;;0.70;;
78410;SDS011;67706;51.074;-1.796;2023-02-28T10:31:06;0.77;;;0.50;;
78410;SDS011;67706;51.074;-1.796;2023-02-28T10:33:37;3.10;;;0.70;;
78410;SDS011;67706;51.074;-1.796;2023-02-28T10:36:08;1.85;;;1.17;;
78410;SDS011;67706;51.074;-1.796;2023-02-28T10:38:42;1.88;;;0.85;;
78410;SDS011;67706;51.074;-1.796;2023-02-28T10:41:11;1.90;;;0.75;;
78410;SDS011;67706;51.074;-1.796;2023-02-28T10:43:39;1.38;;;0.75;;
78410;SDS011;67706;51.074;-1.796;2023-02-28T10:46:12;0.95;;;0.70;;
78410;SDS011;67706;51.074;-1.796;2023-02-28T10:48:59;2.65;;;0.93;;
78410;SDS011;67706;51.074;-1.796;2023-02-28T10:51:35;0.73;;;0.52;;
78410;SDS011;67706;51.074;-1.796;2023-02-28T10:54:04;1.00;;;0.40;;
78410;SDS011;67706;51.074;-1.796;2023-02-28T10:56:31;1.58;;;0.90;;
78410;SDS011;67706;51.074;-1.796;2023-02-28T10:58:59;2.88;;;1.15;;
78410;SDS011;67706;51.074;-1.796;2023-02-28T11:01:34;1.67;;;0.50;;
78410;SDS011;67706;51.074;-1.796;2023-02-28T11:04:03;4.20;;;1.02;;
78410;SDS011;67706;51.074;-1.796;2023-02-28T11:06:45;1.58;;;0.65;;
78410;SDS011;67706;51.074;-1.796;2023-02-28T11:09:16;2.10;;;0.85;;
78410;SDS011;67706;51.074;-1.796;2023-02-28T11:11:49;1.50;;;0.63;;
78410;SDS011;67706;51.074;-1.796;2023-02-28T11:14:18;1.30;;;0.70;;
78410;SDS011;67706;51.074;-1.796;2023-02-28T11:16:48;2.08;;;0.98;;
78410;SDS011;67706;51.074;-1.796;2023-02-28T11:19:17;2.08;;;0.60;;
78410;SDS011;67706;51.074;-1.796;2023-02-28T11:21:51;1.05;;;0.50;;
78410;SDS011;67706;51.074;-1.796;2023-02-28T11:26:50;2.00;;;0.77;;
78410;SDS011;67706;51.074;-1.796;2023-02-28T11:29:18;0.80;;;0.43;;
78410;SDS011;67706;51.074;-1.796;2023-02-28T11:32:00;1.00;;;0.28;;
78410;SDS011;67706;51.074;-1.796;2023-02-28T11:34:30;0.60;;;0.40;;
78410;SDS011;67706;51.074;-1.796;2023-02-28T11:36:59;1.58;;;0.60;;
78410;SDS011;67706;51.074;-1.796;2023-02-28T11:39:29;1.45;;;0.60;;
78410;SDS011;67706;51.074;-1.796;2023-02-28T11:42:12;1.27;;;1.02;;
78410;SDS011;67706;51.074;-1.796;2023-02-28T11:45:01;1.67;;;0.60;;
78410;SDS011;67706;51.074;-1.796;2023-02-28T11:47:42;1.52;;;0.47;;
78410;SDS011;67706;51.074;-1.796;2023-02-28T11:50:20;0.88;;;0.40;;
78410;SDS011;67706;51.074;-1.796;2023-02-28T11:53:05;1.95;;;0.85;;
78410;SDS011;67706;51.074;-1.796;2023-02-28T11:55:41;0.85;;;0.55;;
78410;SDS011;67706;51.074;-1.796;2023-02-28T11:58:17;2.00;;;1.05;;
78410;SDS011;67706;51.074;-1.796;2023-02-28T12:01:11;3.25;;;0.85;;
78410;SDS011;67706;51.074;-1.796;2023-02-28T12:03:46;3.20;;;0.80;;
78410;SDS011;67706;51.074;-1.796;2023-02-28T12:06:24;1.00;;;0.68;;
78410;SDS011;67706;51.074;-1.796;2023-02-28T12:09:02;1.67;;;0.98;;
78410;SDS011;67706;51.074;-1.796;2023-02-28T12:11:41;3.70;;;1.00;;
78410;SDS011;67706;51.074;-1.796;2023-02-28T12:14:28;2.10;;;1.00;;
78410;SDS011;67706;51.074;-1.796;2023-02-28T12:17:13;2.45;;;0.90;;
78410;SDS011;67706;51.074;-1.796;2023-02-28T12:19:51;1.70;;;1.17;;
78410;SDS011;67706;51.074;-1.796;2023-02-28T12:22:29;1.75;;;0.80;;
78410;SDS011;67706;51.074;-1.796;2023-02-28T12:28:03;2.17;;;0.93;;
78410;SDS011;67706;51.074;-1.796;2023-02-28T12:30:31;2.92;;;1.10;;
78410;SDS011;67706;51.074;-1.796;2023-02-28T12:33:03;2.90;;;1.23;;
78410;SDS011;67706;51.074;-1.796;2023-02-28T12:35:33;2.58;;;1.05;;
78410;SDS011;67706;51.074;-1.796;2023-02-28T12:38:04;4.68;;;0.82;;
78410;SDS011;67706;51.074;-1.796;2023-02-28T12:40:41;2.55;;;1.05;;
78410;SDS011;67706;51.074;-1.796;2023-02-28T12:43:12;1.25;;;0.88;;
78410;SDS011;67706;51.074;-1.796;2023-02-28T12:45:42;2.78;;;1.00;;
78410;SDS011;67706;51.074;-1.796;2023-02-28T12:48:14;5.07;;;1.55;;
78410;SDS011;67706;51.074;-1.796;2023-02-28T12:50:46;3.92;;;1.70;;
78410;SDS011;67706;51.074;-1.796;2023-02-28T12:53:15;3.03;;;1.38;;
78410;SDS011;67706;51.074;-1.796;2023-02-28T12:55:54;2.80;;;1.50;;
78410;SDS011;67706;51.074;-1.796;2023-02-28T12:58:29;3.47;;;1.42;;
78410;SDS011;67706;51.074;-1.796;2023-02-28T13:04:05;2.08;;;1.27;;
78410;SDS011;67706;51.074;-1.796;2023-02-28T13:06:58;3.45;;;1.80;;
78410;SDS011;67706;51.074;-1.796;2023-02-28T13:09:33;2.55;;;1.20;;
78410;SDS011;67706;51.074;-1.796;2023-02-28T13:12:00;3.20;;;1.48;;
78410;SDS011;67706;51.074;-1.796;2023-02-28T13:14:29;2.65;;;1.23;;
78410;SDS011;67706;51.074;-1.796;2023-02-28T13:17:02;3.95;;;1.55;;
78410;SDS011;67706;51.074;-1.796;2023-02-28T13:19:37;2.60;;;1.30;;
78410;SDS011;67706;51.074;-1.796;2023-02-28T13:22:16;3.28;;;1.38;;
78410;SDS011;67706;51.074;-1.796;2023-02-28T13:24:46;2.53;;;1.13;;
78410;SDS011;67706;51.074;-1.796;2023-02-28T13:30:02;4.30;;;1.77;;
78410;SDS011;67706;51.074;-1.796;2023-02-28T13:33:25;2.38;;;1.17;;
78410;SDS011;67706;51.074;-1.796;2023-02-28T13:36:10;3.55;;;1.20;;
78410;SDS011;67706;51.074;-1.796;2023-02-28T13:38:49;3.92;;;1.23;;
78410;SDS011;67706;51.074;-1.796;2023-02-28T13:44:08;4.53;;;1.63;;
78410;SDS011;67706;51.074;-1.796;2023-02-28T13:47:15;4.88;;;1.70;;
78410;SDS011;67706;51.074;-1.796;2023-02-28T13:49:42;3.92;;;1.42;;
78410;SDS011;67706;51.074;-1.796;2023-02-28T13:52:10;3.17;;;1.00;;
78410;SDS011;67706;51.074;-1.796;2023-02-28T13:54:45;3.65;;;1.60;;
78410;SDS011;67706;51.074;-1.796;2023-02-28T13:57:41;3.38;;;1.52;;
78410;SDS011;67706;51.074;-1.796;2023-02-28T14:00:19;5.45;;;1.65;;
78410;SDS011;67706;51.074;-1.796;2023-02-28T14:03:10;3.22;;;1.40;;
78410;SDS011;67706;51.074;-1.796;2023-02-28T14:08:36;4.53;;;2.28;;
78410;SDS011;67706;51.074;-1.796;2023-02-28T14:11:04;3.45;;;1.50;;
78410;SDS011;67706;51.074;-1.796;2023-02-28T14:13:39;4.38;;;1.83;;
78410;SDS011;67706;51.074;-1.796;2023-02-28T14:16:10;4.65;;;1.95;;
78410;SDS011;67706;51.074;-1.796;2023-02-28T14:18:40;4.60;;;1.73;;
78410;SDS011;67706;51.074;-1.796;2023-02-28T14:21:14;6.50;;;1.80;;
78410;SDS011;67706;51.074;-1.796;2023-02-28T14:24:01;3.17;;;1.55;;
78410;SDS011;67706;51.074;-1.796;2023-02-28T14:29:36;4.70;;;2.33;;
78410;SDS011;67706;51.074;-1.796;2023-02-28T14:32:21;4.10;;;2.20;;
78410;SDS011;67706;51.074;-1.796;2023-02-28T14:34:55;6.45;;;2.03;;
78410;SDS011;67706;51.074;-1.796;2023-02-28T14:37:29;4.03;;;1.58;;
78410;SDS011;67706;51.074;-1.796;2023-02-28T14:39:59;4.63;;;2.08;;
78410;SDS011;67706;51.074;-1.796;2023-02-28T14:42:30;3.50;;;1.73;;
78410;SDS011;67706;51.074;-1.796;2023-02-28T14:44:58;5.30;;;1.85;;
78410;SDS011;67706;51.074;-1.796;2023-02-28T14:47:26;3.60;;;2.03;;
78410;SDS011;67706;51.074;-1.796;2023-02-28T14:49:57;3.55;;;1.58;;
78410;SDS011;67706;51.074;-1.796;2023-02-28T14:52:26;4.20;;;1.48;;
78410;SDS011;67706;51.074;-1.796;2023-02-28T14:54:55;3.40;;;1.77;;
78410;SDS011;67706;51.074;-1.796;2023-02-28T14:57:25;1.90;;;1.20;;
78410;SDS011;67706;51.074;-1.796;2023-02-28T14:59:56;4.65;;;1.80;;
78410;SDS011;67706;51.074;-1.796;2023-02-28T15:02:26;2.85;;;1.30;;
78410;SDS011;67706;51.074;-1.796;2023-02-28T15:04:58;2.83;;;1.30;;
78410;SDS011;67706;51.074;-1.796;2023-02-28T15:07:26;3.78;;;1.70;;
78410;SDS011;67706;51.074;-1.796;2023-02-28T15:10:06;4.20;;;1.88;;
78410;SDS011;67706;51.074;-1.796;2023-02-28T15:12:52;2.80;;;1.30;;
78410;SDS011;67706;51.074;-1.796;2023-02-28T15:15:21;3.33;;;1.38;;
78410;SDS011;67706;51.074;-1.796;2023-02-28T15:17:51;2.10;;;1.20;;
78410;SDS011;67706;51.074;-1.796;2023-02-28T15:20:24;3.55;;;1.42;;
78410;SDS011;67706;51.074;-1.796;2023-02-28T15:22:52;6.40;;;1.98;;
78410;SDS011;67706;51.074;-1.796;2023-02-28T15:25:22;6.22;;;2.38;;
78410;SDS011;67706;51.074;-1.796;2023-02-28T15:27:51;3.88;;;1.73;;
78410;SDS011;67706;51.074;-1.796;2023-02-28T15:30:20;4.18;;;1.63;;
78410;SDS011;67706;51.074;-1.796;2023-02-28T15:33:04;4.25;;;1.85;;
78410;SDS011;67706;51.074;-1.796;2023-02-28T15:35:34;3.83;;;1.83;;
78410;SDS011;67706;51.074;-1.796;2023-02-28T15:38:02;5.10;;;2.03;;
78410;SDS011;67706;51.074;-1.796;2023-02-28T15:40:31;2.67;;;1.20;;
78410;SDS011;67706;51.074;-1.796;2023-02-28T15:43:05;3.35;;;1.65;;
78410;SDS011;67706;51.074;-1.796;2023-02-28T15:45:37;4.55;;;2.35;;
78410;SDS011;67706;51.074;-1.796;2023-02-28T15:48:13;4.50;;;2.20;;
78410;SDS011;67706;51.074;-1.796;2023-02-28T15:50:46;4.47;;;2.50;;
78410;SDS011;67706;51.074;-1.796;2023-02-28T15:53:16;4.55;;;2.45;;
78410;SDS011;67706;51.074;-1.796;2023-02-28T15:55:45;2.22;;;1.58;;
78410;SDS011;67706;51.074;-1.796;2023-02-28T15:58:21;4.43;;;2.10;;
78410;SDS011;67706;51.074;-1.796;2023-02-28T16:00:59;2.47;;;1.48;;
78410;SDS011;67706;51.074;-1.796;2023-02-28T16:03:37;4.65;;;2.45;;
78410;SDS011;67706;51.074;-1.796;2023-02-28T16:06:23;5.97;;;3.20;;
78410;SDS011;67706;51.074;-1.796;2023-02-28T16:08:56;5.50;;;2.38;;
78410;SDS011;67706;51.074;-1.796;2023-02-28T16:11:23;3.72;;;1.90;;
78410;SDS011;67706;51.074;-1.796;2023-02-28T16:13:50;3.00;;;1.63;;